Terminal Aerodrome Forecast
Issued by NWS Pueblo, CO

Home | Current Version | Previous Version | Text Only | Print | Product List | Glossary On
Versions: 1 2 3 4 5 6 7 8 9 10 11 12 13 14 15 16 17 18 19 20 21 22 23 24 25 26 27 28 29 30 31 32 33 34
000
FTUS45 KPUB 031720
TAFCOS
TAF
KCOS 031720Z 0318/0418 02012KT P6SM FEW070 SCT250
     FM032000 13015KT P6SM VCTS SCT050CB SCT200
     FM040100 06012KT P6SM SCT050 SCT120
     FM040400 03008KT P6SM BKN030 BKN070
     FM041000 12006KT P6SM OVC020
     FM041600 16010KT P6SM FEW020 SCT070=

USA.gov is the U.S. government's official web portal to all federal, state and local government web resources and services.